首页
METAR-TAF:

METAR-TAF

机场 :

埃克塞特國際機場

埃克塞特, 英格兰

纬度: 50-44N, 经度: 003-25W, 海拔: 30米

当前天气观测

该预报发布于17分钟前的19:20 UTC
风速8节,风向西
温度 11°C
湿度 76%
气压 1017 hPa
能见度10公里或以上
散云层高于4500英尺

METAR: EGTE 021920Z 27008KT 9999 SCT045 11/07 Q1017

时间: 20:37 (19:37 UTC)

预报

该预报发布于2小时和35分钟前的17:02 UTC
预报有效从02日的 18点(UTC)到 03日的 02点(UTC)
风速10节,风向西转西北
能见度10公里或以上
散云层高于2500英尺
几率 30% :
短暂存在
从 02日的 21点(UTC)到 03日的 02点(UTC)
多云层高于1200英尺

TAF: EGTE 021702Z 0218/0302 29010KT 9999 SCT025 PROB30 TEMPO 0221/0302 BKN012

超过4000个机场的气象观测和天气预报(METAR&TAF报告)。

可查询的气象台以黄色和红色小点在地图上表示。

将鼠标移到小点上方,可查看气象台名称。

然后点击查看天气观测和预报。

如需切换地图:点击带黑十字的绿色按钮放大地图;点击带横线的绿色按钮缩小地图;或者点击绿色箭头查看邻近地区的地图。


METAR-TAF: